sensor_id;sensor_type;location;lat;lon;timestamp;pressure;altitude;pressure_sealevel;temperature
37452;BMP280;23314;51.114;6.900;2023-02-27T00:00:55;102390.44;;;0.16
37452;BMP280;23314;51.114;6.900;2023-02-27T00:03:21;102390.53;;;0.11
37452;BMP280;23314;51.114;6.900;2023-02-27T00:05:46;102390.28;;;0.07
37452;BMP280;23314;51.114;6.900;2023-02-27T00:08:11;102397.41;;;0.07
37452;BMP280;23314;51.114;6.900;2023-02-27T00:10:37;102395.13;;;0.00
37452;BMP280;23314;51.114;6.900;2023-02-27T00:13:02;102393.25;;;0.01
37452;BMP280;23314;51.114;6.900;2023-02-27T00:15:28;102392.50;;;0.00
37452;BMP280;23314;51.114;6.900;2023-02-27T00:17:56;102400.13;;;-0.04
37452;BMP280;23314;51.114;6.900;2023-02-27T00:20:21;102393.88;;;-0.08
37452;BMP280;23314;51.114;6.900;2023-02-27T00:22:47;102388.13;;;-0.10
37452;BMP280;23314;51.114;6.900;2023-02-27T00:25:12;102386.09;;;-0.13
37452;BMP280;23314;51.114;6.900;2023-02-27T00:27:38;102391.59;;;-0.14
37452;BMP280;23314;51.114;6.900;2023-02-27T00:30:05;102388.47;;;-0.17
37452;BMP280;23314;51.114;6.900;2023-02-27T00:32:30;102388.47;;;-0.17
37452;BMP280;23314;51.114;6.900;2023-02-27T00:34:56;102395.56;;;-0.17
37452;BMP280;23314;51.114;6.900;2023-02-27T00:37:21;102399.25;;;-0.18
37452;BMP280;23314;51.114;6.900;2023-02-27T00:39:46;102393.78;;;-0.22
37452;BMP280;23314;51.114;6.900;2023-02-27T00:42:11;102394.63;;;-0.26
37452;BMP280;23314;51.114;6.900;2023-02-27T00:44:37;102396.25;;;-0.31
37452;BMP280;23314;51.114;6.900;2023-02-27T00:47:02;102397.34;;;-0.37
37452;BMP280;23314;51.114;6.900;2023-02-27T00:49:28;102398.44;;;-0.43
37452;BMP280;23314;51.114;6.900;2023-02-27T00:51:53;102397.72;;;-0.49
37452;BMP280;23314;51.114;6.900;2023-02-27T00:54:18;102391.47;;;-0.53
37452;BMP280;23314;51.114;6.900;2023-02-27T00:56:44;102394.09;;;-0.53
37452;BMP280;23314;51.114;6.900;2023-02-27T00:59:09;102396.72;;;-0.53
37452;BMP280;23314;51.114;6.900;2023-02-27T01:01:35;102399.06;;;-0.51
37452;BMP280;23314;51.114;6.900;2023-02-27T01:04:00;102400.09;;;-0.52
37452;BMP280;23314;51.114;6.900;2023-02-27T01:06:26;102394.59;;;-0.51
37452;BMP280;23314;51.114;6.900;2023-02-27T01:08:51;102393.31;;;-0.53
37452;BMP280;23314;51.114;6.900;2023-02-27T01:11:16;102400.91;;;-0.52
37452;BMP280;23314;51.114;6.900;2023-02-27T01:13:42;102394.34;;;-0.54
37452;BMP280;23314;51.114;6.900;2023-02-27T01:16:08;102397.53;;;-0.57
37452;BMP280;23314;51.114;6.900;2023-02-27T01:18:34;102392.38;;;-0.63
37452;BMP280;23314;51.114;6.900;2023-02-27T01:21:00;102389.00;;;-0.68
37452;BMP280;23314;51.114;6.900;2023-02-27T01:23:25;102395.34;;;-0.74
37452;BMP280;23314;51.114;6.900;2023-02-27T01:25:51;102389.66;;;-0.82
37452;BMP280;23314;51.114;6.900;2023-02-27T01:28:16;102387.63;;;-0.90
37452;BMP280;23314;51.114;6.900;2023-02-27T01:30:42;102386.38;;;-0.98
37452;BMP280;23314;51.114;6.900;2023-02-27T01:33:07;102384.84;;;-1.04
37452;BMP280;23314;51.114;6.900;2023-02-27T01:35:33;102384.41;;;-1.11
37452;BMP280;23314;51.114;6.900;2023-02-27T01:37:58;102382.59;;;-1.16
37452;BMP280;23314;51.114;6.900;2023-02-27T01:40:24;102376.31;;;-1.20
37452;BMP280;23314;51.114;6.900;2023-02-27T01:42:49;102384.47;;;-1.22
37452;BMP280;23314;51.114;6.900;2023-02-27T01:48:18;102378.22;;;-1.26
37452;BMP280;23314;51.114;6.900;2023-02-27T01:51:00;102382.69;;;-1.26
37452;BMP280;23314;51.114;6.900;2023-02-27T01:53:29;102376.94;;;-1.28
37452;BMP280;23314;51.114;6.900;2023-02-27T01:55:59;102390.84;;;-1.33
37452;BMP280;23314;51.114;6.900;2023-02-27T01:58:26;102383.00;;;-1.38
37452;BMP280;23314;51.114;6.900;2023-02-27T02:00:52;102380.91;;;-1.41
37452;BMP280;23314;51.114;6.900;2023-02-27T02:03:30;102376.75;;;-1.47
37452;BMP280;23314;51.114;6.900;2023-02-27T02:05:59;102383.34;;;-1.50
37452;BMP280;23314;51.114;6.900;2023-02-27T02:08:27;102383.56;;;-1.46
37452;BMP280;23314;51.114;6.900;2023-02-27T02:10:56;102387.47;;;-1.44
37452;BMP280;23314;51.114;6.900;2023-02-27T02:13:22;102384.84;;;-1.44
37452;BMP280;23314;51.114;6.900;2023-02-27T02:15:59;102380.69;;;-1.45
37452;BMP280;23314;51.114;6.900;2023-02-27T02:18:35;102382.72;;;-1.42
37452;BMP280;23314;51.114;6.900;2023-02-27T02:21:43;102382.19;;;-1.39
37452;BMP280;23314;51.114;6.900;2023-02-27T02:27:02;102380.38;;;-1.33
37452;BMP280;23314;51.114;6.900;2023-02-27T02:33:20;102374.53;;;-1.25
37452;BMP280;23314;51.114;6.900;2023-02-27T02:38:30;102366.94;;;-1.21
37452;BMP280;23314;51.114;6.900;2023-02-27T02:43:36;102370.25;;;-1.10
37452;BMP280;23314;51.114;6.900;2023-02-27T02:46:18;102367.56;;;-1.05
37452;BMP280;23314;51.114;6.900;2023-02-27T02:48:59;102366.50;;;-1.04
37452;BMP280;23314;51.114;6.900;2023-02-27T02:51:35;102373.81;;;-1.01
37452;BMP280;23314;51.114;6.900;2023-02-27T02:57:08;102369.31;;;-0.95
37452;BMP280;23314;51.114;6.900;2023-02-27T02:59:46;102368.53;;;-0.96
37452;BMP280;23314;51.114;6.900;2023-02-27T03:02:17;102362.78;;;-0.98
37452;BMP280;23314;51.114;6.900;2023-02-27T03:04:52;102373.06;;;-1.01
37452;BMP280;23314;51.114;6.900;2023-02-27T03:07:28;102379.38;;;-1.08
37452;BMP280;23314;51.114;6.900;2023-02-27T03:10:01;102378.88;;;-1.10
37452;BMP280;23314;51.114;6.900;2023-02-27T03:12:30;102383.34;;;-1.10
37452;BMP280;23314;51.114;6.900;2023-02-27T03:15:02;102382.03;;;-1.13
37452;BMP280;23314;51.114;6.900;2023-02-27T03:17:41;102383.41;;;-1.21
37452;BMP280;23314;51.114;6.900;2023-02-27T03:20:10;102388.69;;;-1.26
37452;BMP280;23314;51.114;6.900;2023-02-27T03:22:39;102393.69;;;-1.29
37452;BMP280;23314;51.114;6.900;2023-02-27T03:25:08;102395.56;;;-1.35
37452;BMP280;23314;51.114;6.900;2023-02-27T03:27:39;102392.94;;;-1.40
37452;BMP280;23314;51.114;6.900;2023-02-27T03:30:07;102393.25;;;-1.47
37452;BMP280;23314;51.114;6.900;2023-02-27T03:32:35;102402.44;;;-1.55
37452;BMP280;23314;51.114;6.900;2023-02-27T03:35:03;102401.47;;;-1.64
37452;BMP280;23314;51.114;6.900;2023-02-27T03:37:40;102405.97;;;-1.75
37452;BMP280;23314;51.114;6.900;2023-02-27T03:42:45;102405.75;;;-1.84
37452;BMP280;23314;51.114;6.900;2023-02-27T03:48:14;102408.88;;;-1.92
37452;BMP280;23314;51.114;6.900;2023-02-27T03:50:40;102408.38;;;-1.94
37452;BMP280;23314;51.114;6.900;2023-02-27T03:53:12;102416.22;;;-1.99
37452;BMP280;23314;51.114;6.900;2023-02-27T03:55:43;102415.47;;;-2.00
37452;BMP280;23314;51.114;6.900;2023-02-27T03:58:10;102405.00;;;-2.05
37452;BMP280;23314;51.114;6.900;2023-02-27T04:00:35;102407.13;;;-2.07
37452;BMP280;23314;51.114;6.900;2023-02-27T04:03:01;102415.25;;;-2.08
37452;BMP280;23314;51.114;6.900;2023-02-27T04:05:27;102407.91;;;-2.12
37452;BMP280;23314;51.114;6.900;2023-02-27T04:08:15;102410.81;;;-2.18
37452;BMP280;23314;51.114;6.900;2023-02-27T04:16:58;102423.38;;;-2.36
37452;BMP280;23314;51.114;6.900;2023-02-27T04:25:02;102430.44;;;-2.47
37452;BMP280;23314;51.114;6.900;2023-02-27T04:27:42;102430.44;;;-2.47
37452;BMP280;23314;51.114;6.900;2023-02-27T04:30:27;102433.84;;;-2.46
37452;BMP280;23314;51.114;6.900;2023-02-27T04:35:55;102423.94;;;-2.49
37452;BMP280;23314;51.114;6.900;2023-02-27T04:41:06;102431.78;;;-2.44
37452;BMP280;23314;51.114;6.900;2023-02-27T04:43:35;102426.25;;;-2.43
37452;BMP280;23314;51.114;6.900;2023-02-27T04:46:03;102433.34;;;-2.43
37452;BMP280;23314;51.114;6.900;2023-02-27T04:48:39;102430.97;;;-2.45
37452;BMP280;23314;51.114;6.900;2023-02-27T04:51:15;102432.00;;;-2.41
37452;BMP280;23314;51.114;6.900;2023-02-27T04:56:19;102430.97;;;-2.40
37452;BMP280;23314;51.114;6.900;2023-02-27T04:58:49;102432.28;;;-2.42
37452;BMP280;23314;51.114;6.900;2023-02-27T05:01:25;102434.63;;;-2.46
37452;BMP280;23314;51.114;6.900;2023-02-27T05:03:53;102444.84;;;-2.49
37452;BMP280;23314;51.114;6.900;2023-02-27T05:06:29;102437.53;;;-2.47
37452;BMP280;23314;51.114;6.900;2023-02-27T05:09:07;102445.59;;;-2.49
37452;BMP280;23314;51.114;6.900;2023-02-27T05:11:48;102459.72;;;-2.50
37452;BMP280;23314;51.114;6.900;2023-02-27T05:14:19;102456.09;;;-2.54
37452;BMP280;23314;51.114;6.900;2023-02-27T05:16:55;102452.44;;;-2.58
37452;BMP280;23314;51.114;6.900;2023-02-27T05:19:22;102454.00;;;-2.62
37452;BMP280;23314;51.114;6.900;2023-02-27T05:21:54;102462.34;;;-2.65
37452;BMP280;23314;51.114;6.900;2023-02-27T05:24:30;102459.69;;;-2.71
37452;BMP280;23314;51.114;6.900;2023-02-27T05:27:27;102456.03;;;-2.75
37452;BMP280;23314;51.114;6.900;2023-02-27T05:30:04;102461.28;;;-2.80
37452;BMP280;23314;51.114;6.900;2023-02-27T05:37:49;102468.56;;;-2.77
37452;BMP280;23314;51.114;6.900;2023-02-27T05:40:21;102472.50;;;-2.74
37452;BMP280;23314;51.114;6.900;2023-02-27T05:43:01;102472.28;;;-2.62
37452;BMP280;23314;51.114;6.900;2023-02-27T05:45:29;102473.81;;;-2.15
37452;BMP280;23314;51.114;6.900;2023-02-27T05:48:08;102462.03;;;-2.02
37452;BMP280;23314;51.114;6.900;2023-02-27T05:50:37;102471.44;;;-2.06
37452;BMP280;23314;51.114;6.900;2023-02-27T05:53:08;102473.31;;;-2.17
37452;BMP280;23314;51.114;6.900;2023-02-27T05:55:40;102468.59;;;-2.25
37452;BMP280;23314;51.114;6.900;2023-02-27T06:00:46;102474.53;;;-1.83
37452;BMP280;23314;51.114;6.900;2023-02-27T06:03:13;102476.13;;;-1.87
37452;BMP280;23314;51.114;6.900;2023-02-27T06:05:40;102480.03;;;-1.80
37452;BMP280;23314;51.114;6.900;2023-02-27T06:08:07;102491.41;;;-1.50
37452;BMP280;23314;51.114;6.900;2023-02-27T06:10:33;102490.88;;;-1.41
37452;BMP280;23314;51.114;6.900;2023-02-27T06:12:58;102490.88;;;-1.41
37452;BMP280;23314;51.114;6.900;2023-02-27T06:15:24;102489.63;;;-1.54
37452;BMP280;23314;51.114;6.900;2023-02-27T06:17:49;102488.88;;;-1.70
37452;BMP280;23314;51.114;6.900;2023-02-27T06:20:15;102498.84;;;-1.77
37452;BMP280;23314;51.114;6.900;2023-02-27T06:22:40;102495.47;;;-1.83
37452;BMP280;23314;51.114;6.900;2023-02-27T06:25:06;102493.38;;;-1.86
37452;BMP280;23314;51.114;6.900;2023-02-27T06:27:31;102504.13;;;-1.88
37452;BMP280;23314;51.114;6.900;2023-02-27T06:29:56;102518.25;;;-1.89
37452;BMP280;23314;51.114;6.900;2023-02-27T06:32:22;102508.28;;;-1.92
37452;BMP280;23314;51.114;6.900;2023-02-27T06:34:49;102505.41;;;-1.90
37452;BMP280;23314;51.114;6.900;2023-02-27T06:37:15;102517.44;;;-1.84
37452;BMP280;23314;51.114;6.900;2023-02-27T06:39:40;102512.44;;;-1.75
37452;BMP280;23314;51.114;6.900;2023-02-27T06:42:05;102518.19;;;-1.68
37452;BMP280;23314;51.114;6.900;2023-02-27T06:44:30;102518.09;;;-1.42
37452;BMP280;23314;51.114;6.900;2023-02-27T06:46:56;102530.88;;;-1.25
37452;BMP280;23314;51.114;6.900;2023-02-27T06:49:21;102528.41;;;-1.06
37452;BMP280;23314;51.114;6.900;2023-02-27T06:51:47;102526.50;;;-0.95
37452;BMP280;23314;51.114;6.900;2023-02-27T06:54:12;102530.47;;;-0.98
37452;BMP280;23314;51.114;6.900;2023-02-27T06:56:38;102532.84;;;-1.01
37452;BMP280;23314;51.114;6.900;2023-02-27T06:59:03;102539.66;;;-1.00
37452;BMP280;23314;51.114;6.900;2023-02-27T07:01:29;102538.59;;;-0.99
37452;BMP280;23314;51.114;6.900;2023-02-27T07:03:54;102546.38;;;-0.89
37452;BMP280;23314;51.114;6.900;2023-02-27T07:06:19;102541.84;;;-0.73
37452;BMP280;23314;51.114;6.900;2023-02-27T07:08:45;102537.09;;;-0.71
37452;BMP280;23314;51.114;6.900;2023-02-27T07:11:10;102546.00;;;-0.67
37452;BMP280;23314;51.114;6.900;2023-02-27T07:13:35;102551.31;;;-0.42
37452;BMP280;23314;51.114;6.900;2023-02-27T07:16:01;102552.28;;;-0.28
37452;BMP280;23314;51.114;6.900;2023-02-27T07:18:26;102547.84;;;-0.33
37452;BMP280;23314;51.114;6.900;2023-02-27T07:20:52;102549.66;;;-0.33
37452;BMP280;23314;51.114;6.900;2023-02-27T07:23:20;102553.59;;;-0.31
37452;BMP280;23314;51.114;6.900;2023-02-27T07:25:46;102545.19;;;-0.27
37452;BMP280;23314;51.114;6.900;2023-02-27T07:28:11;102553.00;;;-0.22
37452;BMP280;23314;51.114;6.900;2023-02-27T07:30:37;102546.66;;;-0.16
37452;BMP280;23314;51.114;6.900;2023-02-27T07:33:03;102558.66;;;-0.10
37452;BMP280;23314;51.114;6.900;2023-02-27T07:35:28;102555.72;;;-0.03
37452;BMP280;23314;51.114;6.900;2023-02-27T07:37:54;102550.16;;;0.04
37452;BMP280;23314;51.114;6.900;2023-02-27T07:40:19;102560.31;;;0.10
37452;BMP280;23314;51.114;6.900;2023-02-27T07:42:46;102548.41;;;0.18
37452;BMP280;23314;51.114;6.900;2023-02-27T07:45:12;102555.69;;;0.26
37452;BMP280;23314;51.114;6.900;2023-02-27T07:47:38;102564.50;;;0.36
37452;BMP280;23314;51.114;6.900;2023-02-27T07:50:03;102559.66;;;0.43
37452;BMP280;23314;51.114;6.900;2023-02-27T07:52:28;102564.31;;;0.51
37452;BMP280;23314;51.114;6.900;2023-02-27T07:54:54;102563.41;;;0.61
37452;BMP280;23314;51.114;6.900;2023-02-27T07:57:19;102574.84;;;0.70
37452;BMP280;23314;51.114;6.900;2023-02-27T07:59:44;102569.47;;;0.81
37452;BMP280;23314;51.114;6.900;2023-02-27T08:02:11;102578.56;;;0.88
37452;BMP280;23314;51.114;6.900;2023-02-27T08:04:36;102568.97;;;0.98
37452;BMP280;23314;51.114;6.900;2023-02-27T08:07:03;102570.38;;;1.09
37452;BMP280;23314;51.114;6.900;2023-02-27T08:09:30;102572.13;;;1.19
37452;BMP280;23314;51.114;6.900;2023-02-27T08:11:56;102575.66;;;1.28
37452;BMP280;23314;51.114;6.900;2023-02-27T08:14:22;102567.09;;;1.36
37452;BMP280;23314;51.114;6.900;2023-02-27T08:16:47;102577.44;;;1.47
37452;BMP280;23314;51.114;6.900;2023-02-27T08:19:13;102573.09;;;1.56
37452;BMP280;23314;51.114;6.900;2023-02-27T08:21:39;102572.94;;;1.66
37452;BMP280;23314;51.114;6.900;2023-02-27T08:24:04;102574.13;;;1.74
37452;BMP280;23314;51.114;6.900;2023-02-27T08:26:30;102571.31;;;1.85
37452;BMP280;23314;51.114;6.900;2023-02-27T08:28:55;102566.41;;;1.92
37452;BMP280;23314;51.114;6.900;2023-02-27T08:31:22;102569.16;;;2.01
37452;BMP280;23314;51.114;6.900;2023-02-27T08:33:47;102576.09;;;2.10
37452;BMP280;23314;51.114;6.900;2023-02-27T08:36:13;102579.63;;;2.20
37452;BMP280;23314;51.114;6.900;2023-02-27T08:38:38;102569.38;;;2.32
37452;BMP280;23314;51.114;6.900;2023-02-27T08:41:03;102573.63;;;2.42
37452;BMP280;23314;51.114;6.900;2023-02-27T08:43:29;102572.94;;;2.50
37452;BMP280;23314;51.114;6.900;2023-02-27T08:45:54;102574.91;;;2.58
37452;BMP280;23314;51.114;6.900;2023-02-27T08:48:19;102571.56;;;2.67
37452;BMP280;23314;51.114;6.900;2023-02-27T08:50:45;102575.53;;;2.78
37452;BMP280;23314;51.114;6.900;2023-02-27T08:53:11;102580.88;;;2.87
37452;BMP280;23314;51.114;6.900;2023-02-27T08:55:37;102574.59;;;2.97
37452;BMP280;23314;51.114;6.900;2023-02-27T08:58:02;102574.63;;;3.06
37452;BMP280;23314;51.114;6.900;2023-02-27T09:00:28;102572.38;;;3.13
37452;BMP280;23314;51.114;6.900;2023-02-27T09:02:54;102568.72;;;3.23
37452;BMP280;23314;51.114;6.900;2023-02-27T09:05:20;102575.31;;;3.34
37452;BMP280;23314;51.114;6.900;2023-02-27T09:07:47;102572.13;;;3.46
37452;BMP280;23314;51.114;6.900;2023-02-27T09:10:12;102577.09;;;3.56
37452;BMP280;23314;51.114;6.900;2023-02-27T09:12:38;102577.94;;;3.65
37452;BMP280;23314;51.114;6.900;2023-02-27T09:15:04;102588.06;;;3.72
37452;BMP280;23314;51.114;6.900;2023-02-27T09:17:30;102579.09;;;3.82
37452;BMP280;23314;51.114;6.900;2023-02-27T09:19:56;102582.69;;;3.86
37452;BMP280;23314;51.114;6.900;2023-02-27T09:22:21;102587.53;;;3.93
37452;BMP280;23314;51.114;6.900;2023-02-27T09:24:47;102583.06;;;4.02
37452;BMP280;23314;51.114;6.900;2023-02-27T09:27:12;102593.31;;;4.12
37452;BMP280;23314;51.114;6.900;2023-02-27T09:29:37;102593.69;;;4.20
37452;BMP280;23314;51.114;6.900;2023-02-27T09:32:03;102593.50;;;4.25
37452;BMP280;23314;51.114;6.900;2023-02-27T09:34:28;102585.75;;;4.28
37452;BMP280;23314;51.114;6.900;2023-02-27T09:36:57;102583.91;;;4.38
37452;BMP280;23314;51.114;6.900;2023-02-27T09:39:22;102578.00;;;4.50
37452;BMP280;23314;51.114;6.900;2023-02-27T09:41:56;102578.03;;;4.58
37452;BMP280;23314;51.114;6.900;2023-02-27T09:44:37;102588.47;;;4.64
37452;BMP280;23314;51.114;6.900;2023-02-27T09:47:05;102590.16;;;4.68
37452;BMP280;23314;51.114;6.900;2023-02-27T09:49:45;102587.22;;;4.79
37452;BMP280;23314;51.114;6.900;2023-02-27T09:52:13;102593.56;;;4.86
37452;BMP280;23314;51.114;6.900;2023-02-27T09:54:38;102585.16;;;4.93
37452;BMP280;23314;51.114;6.900;2023-02-27T09:57:05;102599.63;;;5.04
37452;BMP280;23314;51.114;6.900;2023-02-27T09:59:39;102594.94;;;5.10
37452;BMP280;23314;51.114;6.900;2023-02-27T10:02:36;102592.25;;;5.19
37452;BMP280;23314;51.114;6.900;2023-02-27T10:11:04;102581.38;;;5.29
37452;BMP280;23314;51.114;6.900;2023-02-27T10:13:48;102579.16;;;5.40
37452;BMP280;23314;51.114;6.900;2023-02-27T10:16:20;102586.16;;;5.45
37452;BMP280;23314;51.114;6.900;2023-02-27T10:18:56;102584.91;;;5.51
37452;BMP280;23314;51.114;6.900;2023-02-27T10:21:35;102587.06;;;5.49
37452;BMP280;23314;51.114;6.900;2023-02-27T10:26:49;102584.97;;;5.63
37452;BMP280;23314;51.114;6.900;2023-02-27T10:29:30;102589.75;;;5.70
37452;BMP280;23314;51.114;6.900;2023-02-27T10:32:06;102593.19;;;5.71
37452;BMP280;23314;51.114;6.900;2023-02-27T10:34:33;102583.66;;;5.78
37452;BMP280;23314;51.114;6.900;2023-02-27T10:37:01;102586.09;;;5.92
37452;BMP280;23314;51.114;6.900;2023-02-27T10:39:29;102589.59;;;6.05
37452;BMP280;23314;51.114;6.900;2023-02-27T10:42:02;102583.34;;;6.10
37452;BMP280;23314;51.114;6.900;2023-02-27T10:44:29;102579.69;;;6.14
37452;BMP280;23314;51.114;6.900;2023-02-27T10:46:56;102601.97;;;6.22
37452;BMP280;23314;51.114;6.900;2023-02-27T10:49:21;102597.19;;;6.37
37452;BMP280;23314;51.114;6.900;2023-02-27T10:52:10;102592.44;;;6.42
37452;BMP280;23314;51.114;6.900;2023-02-27T10:54:37;102592.59;;;6.46
37452;BMP280;23314;51.114;6.900;2023-02-27T10:57:06;102604.25;;;6.54
37452;BMP280;23314;51.114;6.900;2023-02-27T10:59:50;102582.22;;;6.53
37452;BMP280;23314;51.114;6.900;2023-02-27T11:04:48;102586.13;;;6.56
37452;BMP280;23314;51.114;6.900;2023-02-27T11:07:33;102581.13;;;6.54
37452;BMP280;23314;51.114;6.900;2023-02-27T11:10:20;102583.69;;;6.63
37452;BMP280;23314;51.114;6.900;2023-02-27T11:13:01;102573.78;;;6.72
37452;BMP280;23314;51.114;6.900;2023-02-27T11:15:30;102573.72;;;6.81
37452;BMP280;23314;51.114;6.900;2023-02-27T11:18:19;102574.16;;;6.83
37452;BMP280;23314;51.114;6.900;2023-02-27T11:20:46;102568.56;;;6.97
37452;BMP280;23314;51.114;6.900;2023-02-27T11:23:20;102573.31;;;7.04
37452;BMP280;23314;51.114;6.900;2023-02-27T11:25:46;102570.72;;;7.16
37452;BMP280;23314;51.114;6.900;2023-02-27T11:28:23;102567.94;;;7.25
37452;BMP280;23314;51.114;6.900;2023-02-27T11:30:57;102568.97;;;7.20
37452;BMP280;23314;51.114;6.900;2023-02-27T11:33:23;102562.09;;;7.19
37452;BMP280;23314;51.114;6.900;2023-02-27T11:35:50;102552.09;;;7.04
37452;BMP280;23314;51.114;6.900;2023-02-27T11:38:20;102542.59;;;7.03
37452;BMP280;23314;51.114;6.900;2023-02-27T11:40:58;102545.22;;;7.03
37452;BMP280;23314;51.114;6.900;2023-02-27T11:43:27;102538.06;;;7.03
37452;BMP280;23314;51.114;6.900;2023-02-27T11:45:58;102528.78;;;7.09
37452;BMP280;23314;51.114;6.900;2023-02-27T11:48:28;102528.66;;;7.06
37452;BMP280;23314;51.114;6.900;2023-02-27T11:53:47;102526.00;;;7.06
37452;BMP280;23314;51.114;6.900;2023-02-27T11:56:45;102532.94;;;7.11
37452;BMP280;23314;51.114;6.900;2023-02-27T11:59:21;102525.00;;;7.11
37452;BMP280;23314;51.114;6.900;2023-02-27T12:01:54;102518.59;;;7.12
37452;BMP280;23314;51.114;6.900;2023-02-27T12:04:32;102512.84;;;7.22
37452;BMP280;23314;51.114;6.900;2023-02-27T12:09:45;102519.50;;;7.28
37452;BMP280;23314;51.114;6.900;2023-02-27T12:12:18;102508.41;;;7.38
37452;BMP280;23314;51.114;6.900;2023-02-27T12:17:58;102512.50;;;7.61
37452;BMP280;23314;51.114;6.900;2023-02-27T12:20:51;102504.84;;;7.59
37452;BMP280;23314;51.114;6.900;2023-02-27T12:23:32;102498.66;;;7.67
37452;BMP280;23314;51.114;6.900;2023-02-27T12:26:06;102498.22;;;7.65
37452;BMP280;23314;51.114;6.900;2023-02-27T12:31:16;102486.34;;;7.75
37452;BMP280;23314;51.114;6.900;2023-02-27T12:33:49;102492.66;;;7.70
37452;BMP280;23314;51.114;6.900;2023-02-27T12:36:17;102476.72;;;7.70
37452;BMP280;23314;51.114;6.900;2023-02-27T12:38:42;102471.63;;;7.65
37452;BMP280;23314;51.114;6.900;2023-02-27T12:50:00;102460.78;;;7.70
37452;BMP280;23314;51.114;6.900;2023-02-27T12:55:15;102459.66;;;7.71
37452;BMP280;23314;51.114;6.900;2023-02-27T12:58:00;102471.94;;;7.76
37452;BMP280;23314;51.114;6.900;2023-02-27T13:00:44;102468.69;;;7.54
37452;BMP280;23314;51.114;6.900;2023-02-27T13:03:34;102466.09;;;7.58
37452;BMP280;23314;51.114;6.900;2023-02-27T13:06:18;102469.84;;;7.69
37452;BMP280;23314;51.114;6.900;2023-02-27T13:14:38;102461.47;;;7.67
37452;BMP280;23314;51.114;6.900;2023-02-27T13:17:25;102463.34;;;7.95
37452;BMP280;23314;51.114;6.900;2023-02-27T13:25:54;102448.75;;;8.17
37452;BMP280;23314;51.114;6.900;2023-02-27T13:28:26;102460.63;;;8.08
37452;BMP280;23314;51.114;6.900;2023-02-27T13:33:31;102463.19;;;8.04
37452;BMP280;23314;51.114;6.900;2023-02-27T13:36:21;102455.00;;;8.09
37452;BMP280;23314;51.114;6.900;2023-02-27T13:38:51;102455.22;;;8.04
37452;BMP280;23314;51.114;6.900;2023-02-27T13:41:33;102452.28;;;7.93
37452;BMP280;23314;51.114;6.900;2023-02-27T13:46:45;102451.13;;;7.78
37452;BMP280;23314;51.114;6.900;2023-02-27T13:49:21;102451.03;;;7.75
37452;BMP280;23314;51.114;6.900;2023-02-27T13:51:50;102455.56;;;7.74
37452;BMP280;23314;51.114;6.900;2023-02-27T13:54:23;102453.25;;;7.60
37452;BMP280;23314;51.114;6.900;2023-02-27T13:57:05;102463.13;;;7.60
37452;BMP280;23314;51.114;6.900;2023-02-27T13:59:36;102447.63;;;7.62
37452;BMP280;23314;51.114;6.900;2023-02-27T14:02:28;102454.06;;;7.61
37452;BMP280;23314;51.114;6.900;2023-02-27T14:04:56;102464.13;;;7.67
37452;BMP280;23314;51.114;6.900;2023-02-27T14:07:27;102447.84;;;7.69
37452;BMP280;23314;51.114;6.900;2023-02-27T14:10:06;102452.00;;;7.70
37452;BMP280;23314;51.114;6.900;2023-02-27T14:12:41;102480.91;;;7.71
37452;BMP280;23314;51.114;6.900;2023-02-27T14:17:44;102477.34;;;7.39
37452;BMP280;23314;51.114;6.900;2023-02-27T14:25:46;102473.69;;;7.44
37452;BMP280;23314;51.114;6.900;2023-02-27T14:28:35;102477.88;;;7.45
37452;BMP280;23314;51.114;6.900;2023-02-27T14:31:04;102473.44;;;7.49
37452;BMP280;23314;51.114;6.900;2023-02-27T14:33:39;102464.22;;;7.59
37452;BMP280;23314;51.114;6.900;2023-02-27T14:36:16;102467.56;;;7.55
37452;BMP280;23314;51.114;6.900;2023-02-27T14:38:43;102460.13;;;7.61
37452;BMP280;23314;51.114;6.900;2023-02-27T14:44:03;102454.00;;;7.73
37452;BMP280;23314;51.114;6.900;2023-02-27T14:46:36;102459.09;;;7.78
37452;BMP280;23314;51.114;6.900;2023-02-27T14:49:05;102452.38;;;7.81
37452;BMP280;23314;51.114;6.900;2023-02-27T14:51:33;102460.34;;;7.81
37452;BMP280;23314;51.114;6.900;2023-02-27T14:54:11;102454.66;;;7.82
37452;BMP280;23314;51.114;6.900;2023-02-27T14:56:37;102448.22;;;7.83
37452;BMP280;23314;51.114;6.900;2023-02-27T14:59:20;102443.94;;;7.79
37452;BMP280;23314;51.114;6.900;2023-02-27T15:01:46;102449.13;;;7.75
37452;BMP280;23314;51.114;6.900;2023-02-27T15:04:16;102458.72;;;7.92
37452;BMP280;23314;51.114;6.900;2023-02-27T15:06:45;102454.53;;;7.91
37452;BMP280;23314;51.114;6.900;2023-02-27T15:11:59;102442.41;;;7.65
37452;BMP280;23314;51.114;6.900;2023-02-27T15:14:34;102457.75;;;7.44
37452;BMP280;23314;51.114;6.900;2023-02-27T15:17:00;102456.53;;;7.29
37452;BMP280;23314;51.114;6.900;2023-02-27T15:19:27;102460.50;;;7.22
37452;BMP280;23314;51.114;6.900;2023-02-27T15:21:58;102460.88;;;7.21
37452;BMP280;23314;51.114;6.900;2023-02-27T15:24:35;102462.84;;;7.24
37452;BMP280;23314;51.114;6.900;2023-02-27T15:27:06;102472.28;;;7.21
37452;BMP280;23314;51.114;6.900;2023-02-27T15:29:38;102466.09;;;7.17
37452;BMP280;23314;51.114;6.900;2023-02-27T15:32:04;102473.38;;;7.08
37452;BMP280;23314;51.114;6.900;2023-02-27T15:34:30;102475.59;;;7.06
37452;BMP280;23314;51.114;6.900;2023-02-27T15:36:57;102479.22;;;7.01
37452;BMP280;23314;51.114;6.900;2023-02-27T15:39:24;102484.41;;;6.98
37452;BMP280;23314;51.114;6.900;2023-02-27T15:41:55;102486.50;;;6.92
37452;BMP280;23314;51.114;6.900;2023-02-27T15:44:41;102506.06;;;6.87
37452;BMP280;23314;51.114;6.900;2023-02-27T15:47:11;102481.09;;;6.88
37452;BMP280;23314;51.114;6.900;2023-02-27T15:49:37;102489.16;;;6.92
37452;BMP280;23314;51.114;6.900;2023-02-27T15:52:17;102479.66;;;6.91
37452;BMP280;23314;51.114;6.900;2023-02-27T15:57:19;102492.47;;;6.89
37452;BMP280;23314;51.114;6.900;2023-02-27T15:59:45;102482.50;;;6.86
37452;BMP280;23314;51.114;6.900;2023-02-27T16:02:21;102495.13;;;6.76
37452;BMP280;23314;51.114;6.900;2023-02-27T16:04:47;102495.88;;;6.65
37452;BMP280;23314;51.114;6.900;2023-02-27T16:07:16;102496.41;;;6.58
37452;BMP280;23314;51.114;6.900;2023-02-27T16:09:48;102493.69;;;6.45
37452;BMP280;23314;51.114;6.900;2023-02-27T16:12:35;102491.03;;;6.33
37452;BMP280;23314;51.114;6.900;2023-02-27T16:20:48;102501.66;;;6.12
37452;BMP280;23314;51.114;6.900;2023-02-27T16:28:32;102511.66;;;6.06
37452;BMP280;23314;51.114;6.900;2023-02-27T16:30:58;102509.66;;;6.03